Thunder radar more information blitzortung!


Radar de pluja more information rain snow radar


Visita la nostra xarxa de llocs de meteo:

Template documentation
and downloads

And another site



No particular awareness of the weather is required.    There are no Weather-warnings

Pagina Historial Weather Underground text

Diari Resum Juliol 22, 2017 Unitats:  Imperial    Mètric   Tant
« Previous Dia
SegĂźent Dia »
Diari Setmana Mensual Anual Personalitzada
  Maxima: Minima: Media:
Temperatura: TemperatureC °F 18.7 °F 26.2 °F
Punt de rosada: DewpointC °F 16.7 °F 18.3 °F
Humitat: Humidity % 46 % 63 %
Wind Speed: WindSpeedKMH mph 0.0 mph 5.6 mph
RĂ fegues de vent: WindSpeedGustKMH mph - -
Vent:- - South
Pression baro: PressurehPa in 1010.0 in -
Precipitacions: 0.0 in    
Historical Graphs
 
 
Dades de taula per Juliol 22, 2017
Temps Temperatura Punt de rosada Pression baro Vent Wind Speed RĂ fegues de vent Humitat Rainfall Rate (Hourly)
TemperatureC °F DewpointC °F PressurehPa in Calm     Humidity % HourlyPrecipMM in
00:00 19.6 °F 17.2 °F 1011.7 in Calm     86 % 0.0 in
00:03 22.4 °F 17.6 °F 1010.0 in WSW 1.9 mph 1.9 mph 74 % 0.0 in
00:10 19.6 °F 17.4 °F 1011.7 in Calm   1.6 mph 87 % 0.0 in
00:20 19.5 °F 17.3 °F 1011.7 in Calm     87 % 0.0 in
00:30 19.5 °F 17.3 °F 1011.7 in Calm     87 % 0.0 in
00:40 19.4 °F 17.2 °F 1012.8 in Calm     87 % 0.0 in
00:50 19.2 °F 17.0 °F 1012.8 in SSW 3.2 mph 3.2 mph 87 % 0.0 in
01:00 19.1 °F 16.9 °F 1011.7 in SW 1.6 mph 4.8 mph 87 % 0.0 in
01:10 19.1 °F 17.1 °F 1011.7 in Calm   1.6 mph 88 % 0.0 in
01:20 19.1 °F 17.1 °F 1011.7 in Calm     88 % 0.0 in
01:30 19.1 °F 17.1 °F 1011.7 in WSW 1.6 mph 1.6 mph 88 % 0.0 in
01:40 19.1 °F 17.1 °F 1011.7 in NNE 1.6 mph 3.2 mph 88 % 0.0 in
01:50 18.7 °F 16.7 °F 1011.7 in Calm   1.6 mph 88 % 0.0 in
02:00 18.8 °F 16.8 °F 1011.7 in SSW 1.6 mph 3.2 mph 88 % 0.0 in
02:10 18.8 °F 16.9 °F 1011.7 in Calm   1.6 mph 89 % 0.0 in
02:20 18.9 °F 17.1 °F 1011.7 in Calm     89 % 0.0 in
02:30 19.0 °F 17.2 °F 1011.7 in SW 1.6 mph 3.2 mph 89 % 0.0 in
02:40 19.1 °F 17.1 °F 1011.7 in SW 1.6 mph 3.2 mph 88 % 0.0 in
02:50 19.3 °F 17.4 °F 1011.7 in SW 1.6 mph 3.2 mph 89 % 0.0 in
03:00 19.5 °F 17.4 °F 1011.7 in SW 1.6 mph 3.2 mph 88 % 0.0 in
03:10 20.4 °F 18.2 °F 1011.7 in SE 1.6 mph 3.2 mph 87 % 0.0 in
03:20 21.0 °F 18.2 °F 1011.7 in NE 1.6 mph 4.8 mph 84 % 0.0 in
03:30 21.5 °F 18.3 °F 1011.7 in NE 3.2 mph 4.8 mph 82 % 0.0 in
03:40 21.6 °F 18.2 °F 1012.8 in NE 4.8 mph 4.8 mph 81 % 0.0 in
03:50 22.1 °F 18.5 °F 1012.8 in ENE 3.2 mph 4.8 mph 80 % 0.0 in
04:00 22.3 °F 18.5 °F 1012.8 in NE 1.6 mph 6.4 mph 79 % 0.0 in
04:10 22.9 °F 18.8 °F 1012.8 in NE 1.6 mph 4.8 mph 78 % 0.0 in
04:20 22.9 °F 18.4 °F 1012.8 in NE 3.2 mph 3.2 mph 76 % 0.0 in
04:30 23.5 °F 18.8 °F 1012.8 in Calm   4.8 mph 75 % 0.0 in
04:40 23.8 °F 19.1 °F 1012.8 in SSW 3.2 mph 4.8 mph 75 % 0.0 in
09:39 23.8 °F 19.1 °F 1012.8 in East 3.7 mph 3.9 mph 75 % 0.0 in
09:44 24.1 °F 18.9 °F 1012.8 in SSE 5.6 mph 5.6 mph 73 % 0.0 in
09:49 24.0 °F 18.7 °F 1012.8 in SE 5.6 mph 5.6 mph 72 % 0.0 in
09:55 24.5 °F 19.1 °F 1012.8 in East 1.6 mph 4.8 mph 72 % 0.0 in
10:00 24.3 °F 18.5 °F 1012.8 in ESE 3.2 mph 8.0 mph 70 % 0.0 in
10:05 24.9 °F 19.3 °F 1012.8 in ESE 3.2 mph 4.8 mph 71 % 0.0 in
10:10 25.0 °F 18.9 °F 1013.8 in East 1.6 mph 6.4 mph 69 % 0.0 in
10:15 25.2 °F 19.1 °F 1013.8 in East 3.2 mph 6.4 mph 69 % 0.0 in
10:20 25.6 °F 19.5 °F 1013.8 in Calm   6.4 mph 69 % 0.0 in
10:25 26.0 °F 19.6 °F 1012.8 in South 3.7 mph 3.7 mph 68 % 0.0 in
10:30 26.0 °F 19.6 °F 1012.8 in WSW 3.7 mph 4.2 mph 68 % 0.0 in
10:35 26.0 °F 19.4 °F 1012.8 in West 5.6 mph 5.6 mph 67 % 0.0 in
10:40 25.4 °F 18.4 °F 1012.8 in SE 8.0 mph 9.7 mph 65 % 0.0 in
10:45 25.7 °F 18.8 °F 1012.8 in East 4.8 mph 8.0 mph 66 % 0.0 in
10:50 26.3 °F 19.4 °F 1012.8 in North 3.7 mph 3.7 mph 66 % 0.0 in
10:55 26.7 °F 19.6 °F 1012.8 in ESE 3.2 mph 3.2 mph 65 % 0.0 in
11:00 27.0 °F 19.3 °F 1012.8 in NNW 5.6 mph 5.6 mph 63 % 0.0 in
11:05 27.2 °F 19.6 °F 1012.8 in SW 5.8 mph 5.8 mph 63 % 0.0 in
11:06 27.1 °F 19.4 °F 1012.8 in SW 7.4 mph 7.4 mph 63 % 0.0 in
11:11 27.1 °F 19.2 °F 1012.8 in SW 5.6 mph 5.6 mph 62 % 0.0 in
11:12 27.1 °F 19.2 °F 1012.8 in SSW 3.7 mph 3.7 mph 62 % 0.0 in
11:17 27.4 °F 19.2 °F 1012.8 in SW 7.4 mph 7.4 mph 61 % 0.0 in
11:22 27.4 °F 18.9 °F 1012.8 in West 7.4 mph 7.4 mph 60 % 0.0 in
11:27 27.6 °F 18.9 °F 1012.8 in SSE 7.4 mph 7.4 mph 59 % 0.0 in
11:32 28.0 °F 18.9 °F 1012.8 in SSE 3.7 mph 3.7 mph 58 % 0.0 in
11:37 28.2 °F 18.9 °F 1011.7 in ENE 6.9 mph 6.9 mph 57 % 0.0 in
11:42 28.0 °F 18.7 °F 1011.7 in NE 5.6 mph 5.8 mph 57 % 0.0 in
11:47 27.9 °F 18.6 °F 1011.7 in SW 5.8 mph 5.8 mph 57 % 0.0 in
11:52 28.9 °F 19.2 °F 1011.7 in SW 10.0 mph 10.0 mph 56 % 0.0 in
11:57 28.8 °F 18.6 °F 1011.7 in SSW 7.4 mph 7.4 mph 54 % 0.0 in
12:02 29.1 °F 18.2 °F 1011.7 in South 7.4 mph 7.4 mph 52 % 0.0 in
12:07 29.3 °F 18.7 °F 1011.7 in SW 9.3 mph 9.3 mph 53 % 0.0 in
12:12 29.2 °F 18.6 °F 1011.7 in SW 9.3 mph 9.3 mph 53 % 0.0 in
12:17 29.6 °F 18.4 °F 1011.7 in ENE 6.4 mph 6.4 mph 51 % 0.0 in
12:22 29.1 °F 18.2 °F 1011.7 in WSW 3.9 mph 3.9 mph 52 % 0.0 in
12:27 29.0 °F 18.2 °F 1011.7 in ESE 9.3 mph 9.3 mph 52 % 0.0 in
12:32 29.0 °F 18.4 °F 1011.7 in SW 3.7 mph 3.7 mph 53 % 0.0 in
12:37 28.8 °F 18.3 °F 1011.7 in NE 7.4 mph 7.4 mph 53 % 0.0 in
12:42 27.8 °F 18.2 °F 1011.7 in ESE 20.4 mph 20.4 mph 56 % 0.0 in
12:47 28.1 °F 18.8 °F 1011.7 in South 11.1 mph 11.1 mph 57 % 0.0 in
12:52 28.0 °F 18.9 °F 1011.7 in ESE 7.4 mph 7.4 mph 58 % 0.0 in
12:57 27.7 °F 18.7 °F 1011.7 in ESE 11.1 mph 11.1 mph 58 % 0.0 in
13:02 27.2 °F 18.5 °F 1011.7 in ESE 14.8 mph 14.8 mph 59 % 0.0 in
13:07 27.2 °F 18.5 °F 1011.7 in ESE 9.3 mph 9.3 mph 59 % 0.0 in
13:12 27.1 °F 18.7 °F 1011.7 in East 7.4 mph 7.4 mph 60 % 0.0 in
13:17 27.1 °F 18.7 °F 1011.7 in SSW 9.3 mph 9.3 mph 60 % 0.0 in
13:22 27.2 °F 18.5 °F 1012.8 in SSW 9.3 mph 9.3 mph 59 % 0.0 in
13:27 27.2 °F 18.5 °F 1012.8 in WSW 5.6 mph 5.6 mph 59 % 0.0 in
13:32 27.4 °F 18.7 °F 1012.8 in WSW 3.7 mph 3.9 mph 59 % 0.0 in
13:37 27.7 °F 18.9 °F 1012.8 in SSW 5.6 mph 5.6 mph 59 % 0.0 in
13:42 28.0 °F 19.2 °F 1012.8 in ESE 3.7 mph 3.7 mph 59 % 0.0 in
13:47 28.0 °F 19.2 °F 1012.8 in South 5.6 mph 5.6 mph 59 % 0.0 in
13:52 28.7 °F 19.9 °F 1012.8 in SW 7.4 mph 7.4 mph 59 % 0.0 in
13:57 28.8 °F 19.7 °F 1012.8 in WSW 1.9 mph 1.9 mph 58 % 0.0 in
13:59 28.8 °F 19.7 °F 1012.8 in South 3.7 mph 3.7 mph 58 % 0.0 in
14:04 28.8 °F 19.7 °F 1012.8 in SSW 3.9 mph   58 % 0.0 in
14:09 28.6 °F 19.5 °F 1012.8 in South 3.7 mph 3.7 mph 58 % 0.0 in
14:15 28.6 °F 18.9 °F 1012.8 in SSW 4.8 mph 8.0 mph 56 % 0.0 in
14:20 29.0 °F 19.3 °F 1012.8 in SSW 3.2 mph 9.7 mph 56 % 0.0 in
14:25 29.0 °F 19.3 °F 1011.7 in WSW 4.8 mph 9.7 mph 56 % 0.0 in
14:30 29.3 °F 19.3 °F 1011.7 in South 7.4 mph 7.4 mph 55 % 0.0 in
14:35 29.4 °F 19.4 °F 1011.7 in SSW 4.8 mph 14.5 mph 55 % 0.0 in
14:40 29.9 °F 19.6 °F 1010.7 in SW 9.0 mph 9.0 mph 54 % 0.0 in
14:45 29.8 °F 19.5 °F 1010.7 in SW 7.4 mph 7.4 mph 54 % 0.0 in
14:50 30.4 °F 19.7 °F 1010.7 in SSE 7.4 mph 7.4 mph 53 % 0.0 in
14:55 31.3 °F 20.3 °F 1011.7 in West 7.4 mph 7.4 mph 52 % 0.0 in
15:00 30.8 °F 19.5 °F 1011.7 in SW 4.2 mph 4.2 mph 51 % 0.0 in
15:05 30.8 °F 19.5 °F 1011.7 in SW 13.0 mph 13.0 mph 51 % 0.0 in
15:10 30.9 °F 19.6 °F 1010.7 in SSW 9.3 mph 9.3 mph 51 % 0.0 in
15:15 30.7 °F 19.1 °F 1010.7 in ENE 3.7 mph 3.7 mph 50 % 0.0 in
15:20 31.6 °F 19.6 °F 1010.7 in WNW 6.1 mph 6.1 mph 49 % 0.0 in
15:25 31.5 °F 19.2 °F 1011.7 in SW 4.8 mph 9.7 mph 48 % 0.0 in
15:30 31.7 °F 19.0 °F 1011.7 in SSW 7.4 mph 7.4 mph 47 % 0.0 in
15:35 31.2 °F 19.2 °F 1011.7 in ESE 9.3 mph 9.3 mph 49 % 0.0 in
15:40 31.1 °F 19.1 °F 1011.7 in ESE 10.3 mph 10.3 mph 49 % 0.0 in
15:45 30.6 °F 19.3 °F 1011.7 in ESE 4.8 mph 11.3 mph 51 % 0.0 in
15:50 30.9 °F 19.6 °F 1011.7 in East 11.4 mph 11.4 mph 51 % 0.0 in
15:55 30.5 °F 19.2 °F 1011.7 in ESE 4.8 mph 12.9 mph 51 % 0.0 in
16:00 30.3 °F 19.1 °F 1011.7 in ESE 11.1 mph 11.1 mph 51 % 0.0 in
16:05 29.9 °F 18.7 °F 1011.7 in East 4.8 mph 11.3 mph 51 % 0.0 in
16:10 30.1 °F 19.1 °F 1011.7 in ENE 9.7 mph 16.1 mph 52 % 0.0 in
16:15 30.9 °F 19.3 °F 1011.7 in SSE 4.8 mph 20.9 mph 50 % 0.0 in
16:20 31.6 °F 19.6 °F 1011.7 in WNW 7.4 mph 7.4 mph 49 % 0.0 in
16:25 32.5 °F 19.7 °F 1011.7 in SSE 5.8 mph 5.8 mph 47 % 0.0 in
16:30 31.5 °F 19.5 °F 1011.7 in NE 5.8 mph 5.8 mph 49 % 0.0 in
16:35 31.5 °F 19.2 °F 1011.7 in WSW 9.3 mph 9.3 mph 48 % 0.0 in
16:40 32.4 °F 19.7 °F 1011.7 in SW 3.7 mph 3.7 mph 47 % 0.0 in
16:45 32.4 °F 19.7 °F 1011.7 in WSW 9.3 mph 9.3 mph 47 % 0.0 in
16:50 31.9 °F 19.2 °F 1011.7 in SSW 4.8 mph 11.3 mph 47 % 0.0 in
16:55 31.7 °F 18.7 °F 1011.7 in SSE 3.2 mph 11.3 mph 46 % 0.0 in
17:00 30.4 °F 17.8 °F 1011.7 in ESE 3.2 mph 8.0 mph 47 % 0.0 in
17:05 30.7 °F 18.1 °F 1011.7 in ESE 3.2 mph 9.7 mph 47 % 0.0 in
17:10 31.0 °F 18.4 °F 1011.7 in South 3.2 mph 8.0 mph 47 % 0.0 in
17:15 30.6 °F 18.3 °F 1011.7 in SSW 4.8 mph 12.9 mph 48 % 0.0 in
17:17 30.6 °F 18.7 °F 1011.7 in WSW 9.3 mph 9.3 mph 49 % 0.0 in
17:22 30.2 °F 18.3 °F 1011.7 in SW 9.3 mph 9.3 mph 49 % 0.0 in
17:27 29.9 °F 18.3 °F 1011.7 in SW 11.1 mph 11.1 mph 50 % 0.0 in
17:32 29.8 °F 18.3 °F 1011.7 in SW 11.1 mph 11.1 mph 50 % 0.0 in
17:37 29.7 °F 18.2 °F 1011.7 in SW 11.1 mph 11.1 mph 50 % 0.0 in
17:42 29.5 °F 18.3 °F 1011.7 in West 11.1 mph 11.1 mph 51 % 0.0 in
17:47 29.2 °F 18.0 °F 1011.7 in WSW 16.7 mph 16.7 mph 51 % 0.0 in
17:55 29.0 °F 18.2 °F 1010.7 in SSW 13.0 mph 13.0 mph 52 % 0.0 in
18:00 29.0 °F 18.4 °F 1010.7 in SW 11.1 mph 11.1 mph 53 % 0.0 in
18:05 29.0 °F 18.4 °F 1011.7 in South 11.1 mph 11.1 mph 53 % 0.0 in
18:10 29.6 °F 18.7 °F 1011.7 in SW 7.4 mph 7.4 mph 52 % 0.0 in
18:15 29.8 °F 18.9 °F 1011.7 in SW 9.3 mph 9.3 mph 52 % 0.0 in
18:20 30.0 °F 19.1 °F 1010.7 in SSW 14.8 mph 14.8 mph 52 % 0.0 in
18:25 29.9 °F 18.7 °F 1010.7 in SSW 13.0 mph 13.0 mph 51 % 0.0 in
18:30 29.4 °F 18.2 °F 1010.7 in SSW 11.1 mph 11.1 mph 51 % 0.0 in
18:35 29.4 °F 18.5 °F 1011.7 in WSW 9.3 mph 9.3 mph 52 % 0.0 in
18:40 29.0 °F 17.8 °F 1011.7 in WSW 13.0 mph 13.0 mph 51 % 0.0 in
18:45 28.7 °F 18.2 °F 1011.7 in SW 13.0 mph 13.0 mph 53 % 0.0 in
18:50 28.5 °F 18.0 °F 1011.7 in West 14.8 mph 14.8 mph 53 % 0.0 in
18:51 28.5 °F 18.0 °F 1011.7 in South 14.8 mph 14.8 mph 53 % 0.0 in
18:56 28.2 °F 18.0 °F 1011.7 in SW 20.4 mph 20.4 mph 54 % 0.0 in
19:01 28.1 °F 17.9 °F 1011.7 in SW 14.8 mph 14.8 mph 54 % 0.0 in
19:06 28.1 °F 17.9 °F 1011.7 in SW 13.0 mph 13.0 mph 54 % 0.0 in
19:10 24.1 °F 17.8 °F 1014.8 in Calm     68 % 0.0 in
19:11 28.4 °F 18.2 °F 1011.7 in South 9.3 mph 9.3 mph 54 % 0.0 in
19:16 28.7 °F 18.5 °F 1011.7 in WSW 14.0 mph 14.0 mph 54 % 0.0 in
19:20 24.0 °F 17.9 °F 1014.8 in Calm   1.6 mph 69 % 0.0 in
19:21 28.8 °F 18.6 °F 1011.7 in South 9.3 mph 9.3 mph 54 % 0.0 in
19:26 28.7 °F 18.5 °F 1011.7 in SW 12.6 mph 12.6 mph 54 % 0.0 in
19:30 23.9 °F 18.1 °F 1014.8 in WNW 1.6 mph 1.6 mph 70 % 0.0 in
19:31 28.5 °F 18.3 °F 1011.7 in SSW 9.3 mph 9.3 mph 54 % 0.0 in
19:36 28.5 °F 18.3 °F 1011.7 in SSW 8.7 mph 8.7 mph 54 % 0.0 in
19:40 23.8 °F 18.2 °F 1014.8 in Calm   1.6 mph 71 % 0.0 in
19:41 28.5 °F 18.3 °F 1011.7 in SW 15.1 mph 15.1 mph 54 % 0.0 in
19:46 28.3 °F 17.8 °F 1011.7 in South 13.0 mph 13.0 mph 53 % 0.0 in
19:50 23.6 °F 18.1 °F 1014.8 in Calm   3.2 mph 71 % 0.0 in
19:51 28.1 °F 17.6 °F 1011.7 in SSE 9.3 mph 9.5 mph 53 % 0.0 in
19:56 28.0 °F 17.5 °F 1011.7 in South 13.0 mph 13.0 mph 53 % 0.0 in
20:00 23.5 °F 17.9 °F 1014.8 in Calm   1.6 mph 71 % 0.0 in
20:01 27.8 °F 17.7 °F 1011.7 in SSW 13.0 mph 13.0 mph 54 % 0.0 in
20:06 27.7 °F 17.6 °F 1011.7 in SW 7.4 mph 7.4 mph 54 % 0.0 in
20:10 23.5 °F 18.2 °F 1014.8 in Calm   1.6 mph 72 % 0.0 in
20:11 27.6 °F 17.4 °F 1011.7 in SSW 9.3 mph 9.3 mph 54 % 0.0 in
20:16 27.5 °F 17.4 °F 1011.7 in SW 7.4 mph 7.4 mph 54 % 0.0 in
20:20 23.5 °F 18.2 °F 1014.8 in WSW 1.6 mph 3.2 mph 72 % 0.0 in
20:21 27.5 °F 17.4 °F 1011.7 in SW 5.6 mph 5.6 mph 54 % 0.0 in
20:26 27.5 °F 17.7 °F 1011.7 in SSW 7.4 mph 7.4 mph 55 % 0.0 in
20:30 23.5 °F 18.4 °F 1015.8 in Calm   3.2 mph 73 % 0.0 in
20:31 27.3 °F 17.4 °F 1011.7 in SSW 7.4 mph 7.4 mph 55 % 0.0 in
20:36 27.2 °F 17.4 °F 1011.7 in WNW 11.1 mph 11.1 mph 55 % 0.0 in
20:40 23.4 °F 18.3 °F 1015.8 in WSW 3.2 mph 4.8 mph 73 % 0.0 in
20:41 27.1 °F 17.6 °F 1011.7 in SSW 8.7 mph 8.7 mph 56 % 0.0 in
20:46 26.9 °F 17.7 °F 1011.7 in WSW 9.3 mph 9.3 mph 57 % 0.0 in
20:50 23.4 °F 18.5 °F 1015.8 in WSW 1.6 mph 3.2 mph 74 % 0.0 in
20:51 26.8 °F 17.8 °F 1011.7 in SW 5.6 mph 5.6 mph 58 % 0.0 in
20:56 26.7 °F 17.8 °F 1011.7 in SW 9.3 mph 9.3 mph 58 % 0.0 in
21:00 23.4 °F 18.7 °F 1015.8 in West 1.6 mph 1.6 mph 75 % 0.0 in
21:01 26.6 °F 17.7 °F 1011.7 in SW 9.3 mph 9.3 mph 58 % 0.0 in
21:06 26.5 °F 17.8 °F 1011.7 in SW 9.3 mph 9.3 mph 59 % 0.0 in
21:10 23.1 °F 18.4 °F 1015.8 in NE 1.6 mph 3.2 mph 75 % 0.0 in
21:11 26.4 °F 17.7 °F 1011.7 in SW 9.3 mph 9.3 mph 59 % 0.0 in
21:16 26.3 °F 17.7 °F 1011.7 in SW 9.3 mph 9.3 mph 59 % 0.0 in
21:20 22.9 °F 18.4 °F 1015.8 in ESE 3.2 mph 4.8 mph 76 % 0.0 in
21:21 26.2 °F 17.8 °F 1012.8 in WSW 5.6 mph 5.6 mph 60 % 0.0 in
21:26 26.1 °F 17.7 °F 1012.8 in SW 8.7 mph 8.7 mph 60 % 0.0 in
21:30 22.7 °F 18.1 °F 1015.8 in East 1.6 mph 3.2 mph 75 % 0.0 in
21:31 26.0 °F 17.6 °F 1012.8 in SSW 7.4 mph 7.4 mph 60 % 0.0 in
21:36 25.9 °F 17.6 °F 1012.8 in SW 5.6 mph 5.6 mph 60 % 0.0 in
21:40 22.6 °F 17.9 °F 1015.8 in East 1.6 mph 1.6 mph 75 % 0.0 in
21:41 25.8 °F 17.7 °F 1012.8 in WSW 9.3 mph 9.3 mph 61 % 0.0 in
21:46 25.7 °F 17.6 °F 1012.8 in SW 7.4 mph 7.4 mph 61 % 0.0 in
21:50 22.5 °F 17.8 °F 1015.8 in Calm     75 % 0.0 in
21:51 25.6 °F 17.5 °F 1013.8 in SSW 5.6 mph 5.6 mph 61 % 0.0 in
21:56 25.5 °F 17.4 °F 1013.8 in WSW 5.6 mph 5.6 mph 61 % 0.0 in
22:00 22.3 °F 17.9 °F 1016.8 in SSE 1.6 mph 3.2 mph 76 % 0.0 in
22:01 25.5 °F 17.4 °F 1013.8 in WSW 5.6 mph 5.6 mph 61 % 0.0 in
22:06 25.4 °F 17.3 °F 1013.8 in SW 5.6 mph 5.6 mph 61 % 0.0 in
22:10 22.3 °F 17.9 °F 1015.8 in Calm   3.2 mph 76 % 0.0 in
22:11 25.3 °F 17.5 °F 1013.8 in South 7.4 mph 7.4 mph 62 % 0.0 in
22:16 25.2 °F 17.4 °F 1013.8 in SW 3.7 mph 3.7 mph 62 % 0.0 in
22:20 22.4 °F 17.9 °F 1015.8 in Calm   3.2 mph 76 % 0.0 in
22:21 25.1 °F 17.3 °F 1013.8 in SW 5.6 mph 5.6 mph 62 % 0.0 in
22:26 25.1 °F 17.6 °F 1013.8 in SW 3.7 mph 3.7 mph 63 % 0.0 in
22:30 22.4 °F 17.9 °F 1015.8 in Calm     76 % 0.0 in
22:31 25.0 °F 17.4 °F 1013.8 in SW 5.0 mph 5.0 mph 63 % 0.0 in
22:36 25.0 °F 17.4 °F 1013.8 in SW 3.7 mph 3.7 mph 63 % 0.0 in
22:40 22.5 °F 18.3 °F 1015.8 in ENE 1.6 mph 1.6 mph 77 % 0.0 in
22:41 24.9 °F 17.6 °F 1013.8 in SW 5.6 mph 5.6 mph 64 % 0.0 in
22:46 24.9 °F 17.9 °F 1013.8 in WSW 1.9 mph 1.9 mph 65 % 0.0 in
22:50 22.6 °F 18.4 °F 1015.8 in Calm   3.2 mph 77 % 0.0 in
22:51 24.8 °F 17.8 °F 1013.8 in WSW 1.9 mph 1.9 mph 65 % 0.0 in
22:56 24.8 °F 17.8 °F 1013.8 in WNW 1.9 mph   65 % 0.0 in
22:57 24.8 °F 17.8 °F 1013.8 in Calm     65 % 0.0 in
23:00 22.6 °F 18.4 °F 1015.8 in NE 1.6 mph 3.2 mph 77 % 0.0 in
23:02 24.8 °F 17.8 °F 1013.8 in West 1.9 mph 1.9 mph 65 % 0.0 in
23:07 24.7 °F 17.9 °F 1013.8 in Calm     66 % 0.0 in
23:10 22.8 °F 18.6 °F 1015.8 in NNE 1.6 mph 3.2 mph 77 % 0.0 in
23:12 24.7 °F 17.9 °F 1013.8 in WSW 1.4 mph   66 % 0.0 in
23:17 24.6 °F 17.8 °F 1013.8 in Calm     66 % 0.0 in
23:20 22.9 °F 18.7 °F 1015.8 in NNE 3.2 mph 4.8 mph 77 % 0.0 in
23:22 24.6 °F 17.8 °F 1013.8 in Calm     66 % 0.0 in
23:27 24.5 °F 17.9 °F 1013.8 in WSW 2.3 mph 2.3 mph 67 % 0.0 in
23:30 22.9 °F 18.4 °F 1015.8 in NNE 3.2 mph 4.8 mph 76 % 0.0 in
23:32 24.5 °F 17.9 °F 1013.8 in Calm     67 % 0.0 in
23:37 24.4 °F 17.9 °F 1013.8 in WSW 3.9 mph   67 % 0.0 in
23:40 22.7 °F 18.4 °F 1015.8 in Calm   3.2 mph 77 % 0.0 in
23:42 24.4 °F 17.9 °F 1013.8 in WSW 3.7 mph 3.7 mph 67 % 0.0 in
23:47 24.4 °F 17.9 °F 1013.8 in West 4.2 mph 4.2 mph 67 % 0.0 in
23:50 22.6 °F 18.4 °F 1015.8 in Calm     77 % 0.0 in
23:52 24.3 °F 18.0 °F 1014.8 in WSW 1.9 mph   68 % 0.0 in
23:57 24.3 °F 18.0 °F 1014.8 in WSW 1.9 mph 1.9 mph 68 % 0.0 in
Meteo Sesrovires
Elogis d' Weather Underground - 1.75 mb

Guio original per  Jim McMurry - jmcmurry@mwt.net Adaptat per a la plantilla per  Wim van der Kuil - Leuven-Template.eu

Trobareu la nostra informacio del temps tambe a:

Weather Underground

AWEKAS